aviador You're here:

LYTV Decoded Metar

TIVAT in SERBIA
Report Time2017-10-22 06:00:00
UTC Time2017-10-22 06:31:00
Flight Rules ifr IFR
WindVRB at 01 kt
Visibility3000 m
Phenomena:Mist
Clouds:Few 050 Hf
CeilingNone
Temp10°C (ISA -5)
Dew Point10°C (100% RH)
AAT9.7°C
QNH1017 hPa
Density Alt-548 ft
Elevation16 ft
Report Wrong Elevation
Raw Report
LYTV 220600Z VRB01KT 9999 3000SE BR FEW050 10/10 Q1017 BECMG
5000=

Extra information for LYTV:More info

Metar Taf Metar & Taf Last 4 Metars F.Rules Stats Wind Profile Meteogram Temp Stats Airport Information Weather charts Add Link Nearby VenuesMetar ALERT Operation Metar Decoded Social comments